createdAt,value
2019-01-21T00:01:14.174Z,64.30
2019-01-21T00:04:02.478Z,65.90
2019-01-21T00:06:51.284Z,64.83
2019-01-21T00:09:40.172Z,69.83
2019-01-21T00:12:28.907Z,66.87
2019-01-21T00:15:17.685Z,65.70
2019-01-21T00:18:08.077Z,66.63
2019-01-21T00:20:56.744Z,66.10
2019-01-21T00:23:44.856Z,68.80
2019-01-21T00:26:33.339Z,66.57
2019-01-21T00:29:22.649Z,67.27
2019-01-21T00:32:11.397Z,71.77
2019-01-21T00:35:00.058Z,72.63
2019-01-21T00:37:48.531Z,67.57
2019-01-21T00:40:37.580Z,69.10
2019-01-21T00:43:26.147Z,66.43
2019-01-21T00:46:15.287Z,65.83
2019-01-21T00:49:03.746Z,70.57
2019-01-21T00:51:55.953Z,68.57
2019-01-21T00:54:44.535Z,63.50
2019-01-21T00:57:33.350Z,66.03
2019-01-21T01:00:25.103Z,67.33
2019-01-21T01:03:19.318Z,67.53
2019-01-21T01:06:09.356Z,65.40
2019-01-21T01:08:58.740Z,66.23
2019-01-21T01:11:49.954Z,67.53
2019-01-21T01:14:38.562Z,71.57
2019-01-21T01:17:26.891Z,68.20
2019-01-21T01:20:21.420Z,66.87
2019-01-21T01:23:10.402Z,62.70
2019-01-21T01:25:59.434Z,70.77
2019-01-21T01:28:48.712Z,69.67
2019-01-21T01:31:37.161Z,69.10
2019-01-21T01:34:25.379Z,67.13
2019-01-21T01:37:13.521Z,63.03
2019-01-21T01:40:02.242Z,71.47
2019-01-21T01:42:51.323Z,64.37
2019-01-21T01:45:40.004Z,64.50
2019-01-21T01:48:29.170Z,71.57
2019-01-21T01:51:17.885Z,68.93
2019-01-21T01:54:06.613Z,68.57
2019-01-21T01:56:56.138Z,67.50
2019-01-21T01:59:45.067Z,68.77
2019-01-21T02:02:33.845Z,70.17
2019-01-21T02:05:23.930Z,66.23
2019-01-21T02:08:12.873Z,67.07
2019-01-21T02:11:02.932Z,71.00
2019-01-21T02:13:51.279Z,62.10
2019-01-21T02:16:39.837Z,67.47
2019-01-21T02:19:29.768Z,68.20
2019-01-21T02:22:21.364Z,65.53
2019-01-21T02:25:10.729Z,64.73
2019-01-21T02:28:18.219Z,65.10
2019-01-21T02:31:46.632Z,65.90
2019-01-21T02:35:14.008Z,64.83
2019-01-21T02:38:39.931Z,68.07
2019-01-21T02:41:55.498Z,70.07
2019-01-21T02:45:20.624Z,69.07
2019-01-21T02:48:42.957Z,68.17
2019-01-21T02:52:11.909Z,67.80
2019-01-21T02:55:13.540Z,73.70
2019-01-21T02:58:15.666Z,68.30
2019-01-21T03:01:27.972Z,68.17
2019-01-21T03:04:41.896Z,65.00
2019-01-21T03:07:52.390Z,69.80
2019-01-21T03:10:54.952Z,67.93
2019-01-21T03:13:58.464Z,68.90
2019-01-21T03:17:11.277Z,69.43
2019-01-21T03:20:52.809Z,68.27
2019-01-21T03:24:21.971Z,68.27
2019-01-21T03:27:47.375Z,67.23
2019-01-21T03:30:56.788Z,67.97
2019-01-21T03:34:31.414Z,64.03
2019-01-21T03:37:58.296Z,64.90
2019-01-21T03:41:01.324Z,65.93
2019-01-21T03:44:43.089Z,68.07
2019-01-21T03:47:46.806Z,70.00
2019-01-21T03:51:12.129Z,64.30
2019-01-21T03:54:11.901Z,63.30
2019-01-21T03:57:13.605Z,63.23
2019-01-21T04:00:29.798Z,63.37
2019-01-21T04:03:51.071Z,66.03
2019-01-21T04:07:17.524Z,70.07
2019-01-21T04:10:41.918Z,64.37
2019-01-21T04:14:02.283Z,68.40
2019-01-21T04:17:34.877Z,67.20
2019-01-21T04:21:25.082Z,64.70
2019-01-21T04:24:57.805Z,66.53
2019-01-21T04:28:32.955Z,63.90
2019-01-21T04:31:57.653Z,64.87
2019-01-21T04:35:26.628Z,66.50
2019-01-21T04:38:51.661Z,65.87
2019-01-21T04:42:05.829Z,64.63
2019-01-21T04:45:37.119Z,69.97
2019-01-21T04:48:59.575Z,68.80
2019-01-21T04:52:20.995Z,70.57
2019-01-21T04:55:39.528Z,69.17
2019-01-21T04:58:57.059Z,68.13
2019-01-21T05:02:39.941Z,64.60
2019-01-21T05:05:51.414Z,67.80
2019-01-21T05:09:14.616Z,68.40
2019-01-21T05:12:39.002Z,66.53
2019-01-21T05:15:59.463Z,66.43
2019-01-21T05:19:31.137Z,65.87
2019-01-21T05:22:40.931Z,69.20
2019-01-21T05:25:41.806Z,66.07
2019-01-21T05:29:05.938Z,64.20
2019-01-21T05:32:42.291Z,66.00
2019-01-21T05:36:16.745Z,66.10
2019-01-21T05:39:39.362Z,65.53
2019-01-21T05:43:10.492Z,66.87
2019-01-21T05:46:37.967Z,64.20
2019-01-21T05:50:03.318Z,68.50
2019-01-21T05:53:37.781Z,65.83
2019-01-21T05:57:08.129Z,64.37
2019-01-21T06:00:55.827Z,69.93
2019-01-21T06:04:14.744Z,64.67
2019-01-21T06:07:44.808Z,68.87
2019-01-21T06:10:52.624Z,66.27
2019-01-21T06:13:54.399Z,64.83
2019-01-21T06:17:02.388Z,64.10
2019-01-21T06:20:13.592Z,64.50
2019-01-21T06:23:38.524Z,63.00
2019-01-21T06:27:04.190Z,67.60
2019-01-21T06:30:36.299Z,67.83
2019-01-21T06:34:09.528Z,65.60
2019-01-21T06:37:38.629Z,64.20
2019-01-21T06:41:04.422Z,66.20
2019-01-21T06:44:32.538Z,66.97
2019-01-21T06:47:51.322Z,64.33
2019-01-21T06:51:18.734Z,61.57
2019-01-21T06:54:30.119Z,60.07
2019-01-21T06:57:47.015Z,59.73
2019-01-21T07:01:15.080Z,59.77
2019-01-21T07:04:50.443Z,62.73
2019-01-21T07:08:14.749Z,67.30
2019-01-21T07:11:47.506Z,66.47
2019-01-21T07:15:20.251Z,63.77
2019-01-21T07:18:48.778Z,62.83
2019-01-21T07:22:21.013Z,62.40
2019-01-21T07:26:08.274Z,66.57
2019-01-21T07:29:22.792Z,65.83
2019-01-21T07:33:01.136Z,63.10
2019-01-21T07:36:22.225Z,61.43
2019-01-21T07:39:38.343Z,61.80
2019-01-21T07:42:48.299Z,64.80
2019-01-21T07:45:59.048Z,62.13
2019-01-21T07:49:21.537Z,61.87
2019-01-21T07:53:01.603Z,64.67
2019-01-21T07:56:05.790Z,63.63
2019-01-21T07:59:22.105Z,64.50
2019-01-21T08:02:37.128Z,59.67
2019-01-21T08:05:57.179Z,66.80
2019-01-21T08:09:05.998Z,64.30
2019-01-21T08:12:33.382Z,60.30
2019-01-21T08:16:02.473Z,59.53
2019-01-21T08:19:02.265Z,62.10
2019-01-21T08:22:26.670Z,65.37
2019-01-21T08:25:45.115Z,61.53
2019-01-21T08:29:18.013Z,61.03
2019-01-21T08:32:36.871Z,59.87
2019-01-21T08:35:33.204Z,56.67
2019-01-21T08:39:03.068Z,64.60
2019-01-21T08:42:24.468Z,59.87
2019-01-21T08:45:32.430Z,59.00
2019-01-21T08:49:01.039Z,62.67
2019-01-21T08:52:24.441Z,57.83
2019-01-21T08:55:57.300Z,59.13
2019-01-21T08:59:29.990Z,63.90
2019-01-21T09:02:52.295Z,56.50
2019-01-21T09:06:18.662Z,57.67
2019-01-21T09:09:35.213Z,57.23
2019-01-21T09:12:59.249Z,57.67
2019-01-21T09:16:06.114Z,60.43
2019-01-21T09:19:12.513Z,56.63
2019-01-21T09:22:07.340Z,56.70
2019-01-21T09:25:05.263Z,62.07
2019-01-21T09:28:13.068Z,59.90
2019-01-21T09:31:38.999Z,62.43
2019-01-21T09:34:47.977Z,57.97
2019-01-21T09:38:33.472Z,62.43
2019-01-21T09:41:59.248Z,57.60
2019-01-21T09:45:06.239Z,62.43
2019-01-21T09:47:53.240Z,63.23
2019-01-21T09:50:43.662Z,59.80
2019-01-21T09:53:32.587Z,59.87
2019-01-21T09:56:22.800Z,61.30
2019-01-21T09:59:12.389Z,54.90
2019-01-21T10:02:03.686Z,62.17
2019-01-21T10:05:01.863Z,62.47
2019-01-21T10:08:06.274Z,56.33
2019-01-21T10:11:25.450Z,60.20
2019-01-21T10:14:35.299Z,61.57
2019-01-21T10:17:54.877Z,58.30
2019-01-21T10:21:14.778Z,60.10
2019-01-21T10:24:27.676Z,60.87
2019-01-21T10:27:58.284Z,59.77
2019-01-21T10:31:39.879Z,69.23
2019-01-21T10:35:04.649Z,63.73
2019-01-21T10:38:29.055Z,62.17
2019-01-21T10:41:31.873Z,60.03
2019-01-21T10:44:52.078Z,63.93
2019-01-21T10:48:25.999Z,64.53
2019-01-21T10:51:31.981Z,73.87
2019-01-21T10:54:29.209Z,74.93
2019-01-21T10:57:48.292Z,67.67
2019-01-21T11:01:35.892Z,61.43
2019-01-21T11:04:47.088Z,66.47
2019-01-21T11:07:57.603Z,64.03
2019-01-21T11:11:09.986Z,63.90
2019-01-21T11:14:35.366Z,63.33
2019-01-21T11:17:41.235Z,62.20
2019-01-21T11:21:01.221Z,63.40
2019-01-21T11:24:30.954Z,65.37
2019-01-21T11:28:19.420Z,72.90
2019-01-21T11:31:58.330Z,72.73
2019-01-21T11:35:19.121Z,61.97
2019-01-21T11:38:34.634Z,64.97
2019-01-21T11:41:41.020Z,64.00
2019-01-21T11:44:56.097Z,65.97
2019-01-21T11:48:17.982Z,59.87
2019-01-21T11:52:18.239Z,61.57
2019-01-21T11:55:48.218Z,61.23
2019-01-21T11:59:02.312Z,72.57
2019-01-21T12:02:35.002Z,60.87
2019-01-21T12:05:37.158Z,62.50
2019-01-21T12:09:31.077Z,62.03
2019-01-21T12:12:39.836Z,67.80
2019-01-21T12:15:47.298Z,68.23
2019-01-21T12:19:00.155Z,65.40
2019-01-21T12:22:19.061Z,60.10
2019-01-21T12:25:20.314Z,58.23
2019-01-21T12:28:41.247Z,59.20
2019-01-21T12:31:42.953Z,55.00
2019-01-21T12:35:14.615Z,49.60
2019-01-21T12:38:23.975Z,50.67
2019-01-21T12:41:29.275Z,53.00
2019-01-21T12:44:53.401Z,50.37
2019-01-21T12:47:56.808Z,51.97
2019-01-21T12:51:08.500Z,51.67
2019-01-21T12:54:31.258Z,52.00
2019-01-21T12:57:45.874Z,50.00
2019-01-21T13:01:11.724Z,51.73
2019-01-21T13:04:12.150Z,55.23
2019-01-21T13:07:37.636Z,54.03
2019-01-21T13:10:54.493Z,52.13
2019-01-21T13:14:19.126Z,51.80
2019-01-21T13:17:54.716Z,52.33
2019-01-21T13:21:34.844Z,53.97
2019-01-21T13:25:13.474Z,53.53
2019-01-21T13:28:39.580Z,52.87
2019-01-21T13:32:22.242Z,54.83
2019-01-21T13:35:39.417Z,56.17
2019-01-21T13:39:28.474Z,53.97
2019-01-21T13:42:39.877Z,52.43
2019-01-21T13:46:09.446Z,50.63
2019-01-21T13:49:15.444Z,49.63
2019-01-21T13:53:09.753Z,49.37
2019-01-21T13:56:23.976Z,52.07
2019-01-21T13:59:48.361Z,49.17
2019-01-21T14:03:09.498Z,53.47
2019-01-21T14:06:54.308Z,49.20
2019-01-21T14:10:34.321Z,51.07
2019-01-21T14:14:13.058Z,51.57
2019-01-21T14:17:31.883Z,47.00
2019-01-21T14:20:43.736Z,47.73
2019-01-21T14:23:59.839Z,53.40
2019-01-21T14:27:04.574Z,50.87
2019-01-21T14:30:25.773Z,49.90
2019-01-21T14:33:34.512Z,55.60
2019-01-21T14:37:06.029Z,49.63
2019-01-21T14:40:09.465Z,53.37
2019-01-21T14:43:54.822Z,49.37
2019-01-21T14:47:19.619Z,50.13
2019-01-21T14:50:50.486Z,56.00
2019-01-21T14:54:21.659Z,45.50
2019-01-21T14:57:50.534Z,50.03
2019-01-21T15:01:19.240Z,52.97
2019-01-21T15:04:50.581Z,54.97
2019-01-21T15:08:08.382Z,48.83
2019-01-21T15:11:14.480Z,50.50
2019-01-21T15:14:30.188Z,49.23
2019-01-21T15:18:19.197Z,49.83
2019-01-21T15:21:36.299Z,48.23
2019-01-21T15:25:08.986Z,46.90
2019-01-21T15:28:42.368Z,46.50
2019-01-21T15:32:21.561Z,46.93
2019-01-21T15:35:53.389Z,50.40
2019-01-21T15:39:22.354Z,48.93
2019-01-21T15:42:37.821Z,51.33
2019-01-21T15:45:59.627Z,48.47
2019-01-21T15:49:13.047Z,49.33
2019-01-21T15:52:27.227Z,47.10
2019-01-21T15:55:44.253Z,50.97
2019-01-21T15:58:51.351Z,49.37
2019-01-21T16:02:19.600Z,49.37
2019-01-21T16:05:42.800Z,49.77
2019-01-21T16:09:10.968Z,57.90
2019-01-21T16:12:20.419Z,53.47
2019-01-21T16:15:24.921Z,54.93
2019-01-21T16:18:34.732Z,50.70
2019-01-21T16:21:39.263Z,61.03
2019-01-21T16:25:07.581Z,57.37
2019-01-21T16:28:40.864Z,53.07
2019-01-21T16:31:57.307Z,52.43
2019-01-21T16:35:19.330Z,48.73
2019-01-21T16:38:22.199Z,51.77
2019-01-21T16:41:51.259Z,49.37
2019-01-21T16:44:39.712Z,48.13
2019-01-21T16:47:28.922Z,52.23
2019-01-21T16:50:17.369Z,50.97
2019-01-21T16:53:06.624Z,49.27
2019-01-21T16:55:55.812Z,48.37
2019-01-21T16:58:44.866Z,50.90
2019-01-21T17:01:34.863Z,48.60
2019-01-21T17:04:24.388Z,52.10
2019-01-21T17:07:13.505Z,49.20
2019-01-21T17:10:01.931Z,51.97
2019-01-21T17:12:50.671Z,47.67
2019-01-21T17:15:39.914Z,50.13
2019-01-21T17:18:28.920Z,48.03
2019-01-21T17:21:18.040Z,49.03
2019-01-21T17:24:06.239Z,51.50
2019-01-21T17:26:54.916Z,49.77
2019-01-21T17:29:43.578Z,50.77
2019-01-21T17:32:32.705Z,47.13
2019-01-21T17:35:21.990Z,47.83
2019-01-21T17:38:10.488Z,49.33
2019-01-21T17:40:59.218Z,50.70
2019-01-21T17:43:48.089Z,47.87
2019-01-21T17:46:36.952Z,48.50
2019-01-21T17:49:25.664Z,47.40
2019-01-21T17:52:16.529Z,47.20
2019-01-21T17:55:05.196Z,49.60
2019-01-21T17:57:55.309Z,46.87
2019-01-21T18:00:44.816Z,55.03
2019-01-21T18:03:33.678Z,47.23
2019-01-21T18:06:22.602Z,46.77
2019-01-21T18:09:13.934Z,51.53
2019-01-21T18:12:04.465Z,59.13
2019-01-21T18:14:57.123Z,70.97
2019-01-21T18:17:46.323Z,96.83
2019-01-21T18:20:58.678Z,95.13
2019-01-21T18:23:55.889Z,98.37
2019-01-21T18:26:44.392Z,66.67
2019-01-21T18:29:33.287Z,50.90
2019-01-21T18:32:21.913Z,51.37
2019-01-21T18:35:12.106Z,51.73
2019-01-21T18:38:00.886Z,50.70
2019-01-21T18:40:54.997Z,52.87
2019-01-21T18:43:44.097Z,51.03
2019-01-21T18:46:35.264Z,55.33
2019-01-21T18:49:24.698Z,53.17
2019-01-21T18:52:14.633Z,54.07
2019-01-21T18:55:04.098Z,53.03
2019-01-21T18:57:56.025Z,52.50
2019-01-21T19:00:44.570Z,52.63
2019-01-21T19:03:34.878Z,53.73
2019-01-21T19:06:24.447Z,50.33
2019-01-21T19:09:14.248Z,54.40
2019-01-21T19:12:03.716Z,51.97
2019-01-21T19:14:52.617Z,53.40
2019-01-21T19:17:41.092Z,52.90
2019-01-21T19:20:31.252Z,55.23
2019-01-21T19:23:21.082Z,52.63
2019-01-21T19:26:09.529Z,51.67
2019-01-21T19:29:02.193Z,60.10
2019-01-21T19:31:52.860Z,55.40
2019-01-21T19:34:53.339Z,57.50
2019-01-21T19:37:42.631Z,57.93
2019-01-21T19:40:32.171Z,56.90
2019-01-21T19:43:21.479Z,57.93
2019-01-21T19:46:10.551Z,56.27
2019-01-21T19:48:58.883Z,56.17
2019-01-21T19:51:47.861Z,57.60
2019-01-21T19:54:35.857Z,54.30
2019-01-21T19:57:24.376Z,50.40
2019-01-21T20:00:16.913Z,54.53
2019-01-21T20:03:06.461Z,56.20
2019-01-21T20:05:55.147Z,56.43
2019-01-21T20:08:44.985Z,56.77
2019-01-21T20:11:35.452Z,56.27
2019-01-21T20:14:31.369Z,52.60
2019-01-21T20:17:20.620Z,55.93
2019-01-21T20:20:15.830Z,54.77
2019-01-21T20:23:05.076Z,55.93
2019-01-21T20:25:54.252Z,53.50
2019-01-21T20:28:43.470Z,55.73
2019-01-21T20:31:32.209Z,55.63
2019-01-21T20:34:21.256Z,53.23
2019-01-21T20:37:11.269Z,55.10
2019-01-21T20:40:00.886Z,53.70
2019-01-21T20:42:49.742Z,53.80
2019-01-21T20:45:38.416Z,57.00
2019-01-21T20:48:26.711Z,53.33
2019-01-21T20:51:15.671Z,56.47
2019-01-21T20:54:03.618Z,52.57
2019-01-21T20:56:52.145Z,56.67
2019-01-21T20:59:41.428Z,60.70
2019-01-21T21:02:30.689Z,60.17
2019-01-21T21:05:19.947Z,59.30
2019-01-21T21:08:14.896Z,56.20
2019-01-21T21:11:05.260Z,57.50
2019-01-21T21:13:55.939Z,60.93
2019-01-21T21:17:05.265Z,58.10
2019-01-21T21:19:55.037Z,57.67
2019-01-21T21:22:49.939Z,59.17
2019-01-21T21:29:06.980Z,56.33
2019-01-21T21:31:56.614Z,58.13
2019-01-21T21:34:45.354Z,57.17
2019-01-21T21:37:40.451Z,58.73
2019-01-21T21:40:30.293Z,59.40
2019-01-21T21:43:19.417Z,58.60
2019-01-21T21:46:19.816Z,60.10
2019-01-21T21:49:08.323Z,57.30
2019-01-21T21:51:57.466Z,54.00
2019-01-21T21:54:46.657Z,56.00
2019-01-21T21:57:35.498Z,59.97
2019-01-21T22:00:25.185Z,57.00
2019-01-21T22:03:14.515Z,58.53
2019-01-21T22:06:04.430Z,55.47
2019-01-21T22:08:53.598Z,60.80
2019-01-21T22:11:43.814Z,59.73
2019-01-21T22:14:33.046Z,57.80
2019-01-21T22:17:22.136Z,56.63
2019-01-21T22:20:16.099Z,60.57
2019-01-21T22:23:04.533Z,60.53
2019-01-21T22:25:53.137Z,63.60
2019-01-21T22:28:42.235Z,58.97
2019-01-21T22:31:31.446Z,58.47
2019-01-21T22:34:20.953Z,63.83
2019-01-21T22:37:09.674Z,62.23
2019-01-21T22:40:00.386Z,59.83
2019-01-21T22:42:48.603Z,59.17
2019-01-21T22:45:36.967Z,60.27
2019-01-21T22:48:26.574Z,58.63
2019-01-21T22:51:16.272Z,59.50
2019-01-21T22:54:04.838Z,63.73
2019-01-21T22:56:53.563Z,63.30
2019-01-21T22:59:42.287Z,60.33
2019-01-21T23:02:31.182Z,58.73
2019-01-21T23:05:20.012Z,59.93
2019-01-21T23:08:08.366Z,66.87
2019-01-21T23:10:57.664Z,61.50
2019-01-21T23:13:46.661Z,62.87
2019-01-21T23:16:36.595Z,66.00
2019-01-21T23:19:26.235Z,62.43
2019-01-21T23:22:14.634Z,70.13
2019-01-21T23:25:04.517Z,62.27
2019-01-21T23:27:53.588Z,66.17
2019-01-21T23:30:42.522Z,64.20
2019-01-21T23:33:31.894Z,63.47
2019-01-21T23:36:21.146Z,66.53
2019-01-21T23:39:10.677Z,64.00
2019-01-21T23:41:59.785Z,64.33
2019-01-21T23:44:48.351Z,69.60
2019-01-21T23:47:36.979Z,68.07
2019-01-21T23:50:26.465Z,63.17
2019-01-21T23:53:16.207Z,68.90
2019-01-21T23:56:04.602Z,64.63
2019-01-21T23:58:53.636Z,68.13
